Time,TemperatureF,DewpointF,PressureIn,WindDirection,WindDirectionDegrees,WindSpeedMPH,WindSpeedGustMPH,Humidity,HourlyPrecipIn,Conditions,Clouds,dailyrainin,SolarRadiationWatts/m^2,SoftwareType,DateUTC
2013-03-17 00:02:00,52.0,37.0,-100.00,NW,308,18.0,31.0,57,0.00,,,0.00,0.000000,,2013-03-17 07:02:00,
2013-03-17 00:12:00,52.0,37.0,-100.00,NW,308,18.0,31.0,57,0.00,,,0.00,0.000000,,2013-03-17 07:12:00,
2013-03-17 00:22:00,52.0,37.0,-100.00,NW,308,18.0,31.0,57,0.00,,,0.00,0.000000,,2013-03-17 07:22:00,
2013-03-17 00:52:00,51.0,39.0,-100.00,NW,304,14.0,26.0,63,0.00,,,0.00,0.000000,,2013-03-17 07:52:00,
2013-03-17 01:02:00,51.0,39.0,-100.00,NW,304,14.0,26.0,63,0.00,,,0.00,0.000000,,2013-03-17 08:02:00,
2013-03-17 01:12:00,51.0,39.0,-100.00,NW,304,14.0,26.0,63,0.00,,,0.00,0.000000,,2013-03-17 08:12:00,
2013-03-17 01:22:00,51.0,39.0,-100.00,NW,304,14.0,26.0,63,0.00,,,0.00,0.000000,,2013-03-17 08:22:00,
2013-03-17 01:52:00,50.0,38.0,-100.00,NW,323,18.0,27.0,63,0.00,,,0.00,0.000000,,2013-03-17 08:52:00,
2013-03-17 02:02:00,50.0,38.0,-100.00,NW,323,18.0,27.0,63,0.00,,,0.00,0.000000,,2013-03-17 09:02:00,
2013-03-17 02:12:00,50.0,38.0,-100.00,NW,323,18.0,27.0,63,0.00,,,0.00,0.000000,,2013-03-17 09:12:00,
2013-03-17 02:22:00,50.0,38.0,-100.00,NW,323,18.0,27.0,63,0.00,,,0.00,0.000000,,2013-03-17 09:22:00,
2013-03-17 02:53:00,49.0,37.0,-100.00,WNW,288,10.0,23.0,62,0.00,,,0.00,0.000000,,2013-03-17 09:53:00,
2013-03-17 03:03:00,49.0,37.0,-100.00,WNW,288,10.0,23.0,62,0.00,,,0.00,0.000000,,2013-03-17 10:03:00,
2013-03-17 03:12:00,49.0,37.0,-100.00,WNW,288,10.0,23.0,62,0.00,,,0.00,0.000000,,2013-03-17 10:12:00,
2013-03-17 03:23:00,49.0,37.0,-100.00,WNW,288,10.0,23.0,62,0.00,,,0.00,0.000000,,2013-03-17 10:23:00,
2013-03-17 03:52:00,47.0,37.0,-100.00,NW,309,12.0,21.0,68,0.00,,,0.00,0.000000,,2013-03-17 10:52:00,
2013-03-17 04:02:00,47.0,37.0,-100.00,NW,309,12.0,21.0,68,0.00,,,0.00,0.000000,,2013-03-17 11:02:00,
2013-03-17 04:12:00,47.0,37.0,-100.00,NW,309,12.0,21.0,68,0.00,,,0.00,0.000000,,2013-03-17 11:12:00,
2013-03-17 04:22:00,47.0,37.0,-100.00,NW,309,12.0,21.0,68,0.00,,,0.00,0.000000,,2013-03-17 11:22:00,
2013-03-17 04:52:00,47.0,37.0,-100.00,WNW,285,13.0,21.0,69,0.00,,,0.00,0.000000,,2013-03-17 11:52:00,
2013-03-17 05:02:00,47.0,37.0,-100.00,WNW,285,13.0,21.0,69,0.00,,,0.00,0.000000,,2013-03-17 12:02:00,
2013-03-17 05:12:00,47.0,37.0,-100.00,WNW,285,13.0,21.0,69,0.00,,,0.00,0.000000,,2013-03-17 12:12:00,
2013-03-17 05:21:00,47.0,37.0,-100.00,WNW,285,13.0,21.0,69,0.00,,,0.00,0.000000,,2013-03-17 12:21:00,
2013-03-17 05:52:00,47.0,36.0,-100.00,WNW,287,9.0,16.0,66,0.00,,,0.00,0.000000,,2013-03-17 12:52:00,
2013-03-17 06:02:00,47.0,36.0,-100.00,WNW,287,9.0,16.0,66,0.00,,,0.00,0.000000,,2013-03-17 13:02:00,
2013-03-17 06:12:00,47.0,36.0,-100.00,WNW,287,9.0,16.0,66,0.00,,,0.00,0.000000,,2013-03-17 13:12:00,
2013-03-17 06:22:00,47.0,36.0,-100.00,WNW,287,9.0,16.0,66,0.00,,,0.00,0.000000,,2013-03-17 13:22:00,
2013-03-17 06:52:00,45.0,37.0,-100.00,NW,315,8.0,12.0,74,0.00,,,0.00,0.000000,,2013-03-17 13:52:00,
2013-03-17 07:02:00,45.0,37.0,-100.00,NW,315,8.0,12.0,74,0.00,,,0.00,0.000000,,2013-03-17 14:02:00,
2013-03-17 07:12:00,45.0,37.0,-100.00,NW,315,8.0,12.0,74,0.00,,,0.00,0.000000,,2013-03-17 14:12:00,
2013-03-17 07:22:00,45.0,37.0,-100.00,NW,315,8.0,12.0,74,0.00,,,0.00,0.000000,,2013-03-17 14:22:00,
2013-03-17 07:52:00,44.0,39.0,-100.00,West,271,10.0,14.0,81,0.00,,,0.00,2.000000,,2013-03-17 14:52:00,
2013-03-17 08:02:00,44.0,39.0,-100.00,West,271,10.0,14.0,81,0.00,,,0.00,2.000000,,2013-03-17 15:02:00,
2013-03-17 08:12:00,44.0,39.0,-100.00,West,271,10.0,14.0,81,0.00,,,0.00,2.000000,,2013-03-17 15:12:00,
2013-03-17 08:22:00,44.0,39.0,-100.00,West,271,10.0,14.0,81,0.00,,,0.00,2.000000,,2013-03-17 15:22:00,
2013-03-17 08:53:00,46.0,37.0,-100.00,NW,321,9.0,16.0,71,0.00,,,0.00,107.000000,,2013-03-17 15:53:00,
2013-03-17 09:03:00,46.0,37.0,-100.00,NW,321,9.0,16.0,71,0.00,,,0.00,107.000000,,2013-03-17 16:03:00,
2013-03-17 09:12:00,46.0,37.0,-100.00,NW,321,9.0,16.0,71,0.00,,,0.00,107.000000,,2013-03-17 16:12:00,
2013-03-17 09:22:00,46.0,37.0,-100.00,NW,321,9.0,16.0,71,0.00,,,0.00,107.000000,,2013-03-17 16:22:00,
2013-03-17 09:52:00,48.0,36.0,-100.00,WNW,284,8.0,15.0,63,0.00,,,0.00,275.000000,,2013-03-17 16:52:00,
2013-03-17 10:02:00,48.0,36.0,-100.00,WNW,284,8.0,15.0,63,0.00,,,0.00,275.000000,,2013-03-17 17:02:00,
2013-03-17 10:12:00,48.0,36.0,-100.00,WNW,284,8.0,15.0,63,0.00,,,0.00,275.000000,,2013-03-17 17:12:00,
2013-03-17 10:22:00,48.0,36.0,-100.00,WNW,284,8.0,15.0,63,0.00,,,0.00,275.000000,,2013-03-17 17:22:00,
2013-03-17 10:53:00,53.0,41.0,-100.00,West,259,6.0,12.0,63,0.00,,,0.00,468.000000,,2013-03-17 17:53:00,
2013-03-17 11:02:00,53.0,41.0,-100.00,West,259,6.0,12.0,63,0.00,,,0.00,468.000000,,2013-03-17 18:02:00,
2013-03-17 11:22:00,53.0,41.0,-100.00,West,259,6.0,12.0,63,0.00,,,0.00,468.000000,,2013-03-17 18:22:00,
2013-03-17 11:52:00,55.0,42.0,-100.00,West,269,4.0,11.0,62,0.00,,,0.00,644.000000,,2013-03-17 18:52:00,
2013-03-17 12:02:00,55.0,42.0,-100.00,West,269,4.0,11.0,62,0.00,,,0.00,644.000000,,2013-03-17 19:02:00,
2013-03-17 12:12:00,55.0,42.0,-100.00,West,269,4.0,11.0,62,0.00,,,0.00,644.000000,,2013-03-17 19:12:00,
2013-03-17 12:22:00,55.0,42.0,-100.00,West,269,4.0,11.0,62,0.00,,,0.00,644.000000,,2013-03-17 19:22:00,
2013-03-17 12:53:00,59.0,41.0,-100.00,East,88,4.0,11.0,52,0.00,,,0.00,747.000000,,2013-03-17 19:53:00,
2013-03-17 13:02:00,59.0,41.0,-100.00,East,88,4.0,11.0,52,0.00,,,0.00,747.000000,,2013-03-17 20:02:00,
2013-03-17 13:12:00,59.0,41.0,-100.00,East,88,4.0,11.0,52,0.00,,,0.00,747.000000,,2013-03-17 20:12:00,
2013-03-17 13:22:00,59.0,41.0,-100.00,East,88,4.0,11.0,52,0.00,,,0.00,747.000000,,2013-03-17 20:22:00,
2013-03-17 13:52:00,62.0,40.0,-100.00,NW,320,5.0,8.0,45,0.00,,,0.00,789.000000,,2013-03-17 20:52:00,
2013-03-17 14:02:00,62.0,40.0,-100.00,NW,320,5.0,8.0,45,0.00,,,0.00,789.000000,,2013-03-17 21:02:00,
2013-03-17 14:12:00,62.0,40.0,-100.00,NW,320,5.0,8.0,45,0.00,,,0.00,789.000000,,2013-03-17 21:12:00,
2013-03-17 14:22:00,62.0,40.0,-100.00,NW,320,5.0,8.0,45,0.00,,,0.00,789.000000,,2013-03-17 21:22:00,
2013-03-17 14:52:00,63.0,35.0,-100.00,North,8,5.0,9.0,35,0.00,,,0.00,783.000000,,2013-03-17 21:52:00,
2013-03-17 15:03:00,63.0,35.0,-100.00,North,8,5.0,9.0,35,0.00,,,0.00,783.000000,,2013-03-17 22:03:00,
2013-03-17 15:12:00,63.0,35.0,-100.00,North,8,5.0,9.0,35,0.00,,,0.00,783.000000,,2013-03-17 22:12:00,
2013-03-17 15:22:00,63.0,35.0,-100.00,North,8,5.0,9.0,35,0.00,,,0.00,783.000000,,2013-03-17 22:22:00,
2013-03-17 15:53:00,64.0,32.0,-100.00,NE,49,6.0,11.0,30,0.00,,,0.00,717.000000,,2013-03-17 22:53:00,
2013-03-17 16:02:00,64.0,32.0,-100.00,NE,49,6.0,11.0,30,0.00,,,0.00,717.000000,,2013-03-17 23:02:00,
2013-03-17 16:12:00,64.0,32.0,-100.00,NE,49,6.0,11.0,30,0.00,,,0.00,717.000000,,2013-03-17 23:12:00,
2013-03-17 16:22:00,64.0,32.0,-100.00,NE,49,6.0,11.0,30,0.00,,,0.00,717.000000,,2013-03-17 23:22:00,
2013-03-17 16:52:00,67.0,32.0,-100.00,WSW,255,10.0,15.0,27,0.00,,,0.00,594.000000,,2013-03-17 23:52:00,
2013-03-17 17:03:00,67.0,32.0,-100.00,WSW,255,10.0,15.0,27,0.00,,,0.00,594.000000,,2013-03-18 00:03:00,
2013-03-17 17:11:00,67.0,32.0,-100.00,WSW,255,10.0,15.0,27,0.00,,,0.00,594.000000,,2013-03-18 00:11:00,
2013-03-17 17:52:00,61.0,40.0,-100.00,WSW,249,13.0,20.0,46,0.00,,,0.00,395.000000,,2013-03-18 00:52:00,
2013-03-17 18:01:00,61.0,40.0,-100.00,WSW,249,13.0,20.0,46,0.00,,,0.00,395.000000,,2013-03-18 01:01:00,
2013-03-17 18:12:00,61.0,40.0,-100.00,WSW,249,13.0,20.0,46,0.00,,,0.00,395.000000,,2013-03-18 01:12:00,
2013-03-17 18:22:00,61.0,40.0,-100.00,WSW,249,13.0,20.0,46,0.00,,,0.00,395.000000,,2013-03-18 01:22:00,
2013-03-17 18:52:00,54.0,39.0,-100.00,WSW,250,11.0,16.0,56,0.00,,,0.00,140.000000,,2013-03-18 01:52:00,
2013-03-17 19:02:00,54.0,39.0,-100.00,WSW,250,11.0,16.0,56,0.00,,,0.00,140.000000,,2013-03-18 02:02:00,
2013-03-17 19:12:00,54.0,39.0,-100.00,WSW,250,11.0,16.0,56,0.00,,,0.00,140.000000,,2013-03-18 02:12:00,
2013-03-17 19:22:00,54.0,39.0,-100.00,WSW,250,11.0,16.0,56,0.00,,,0.00,140.000000,,2013-03-18 02:22:00,
2013-03-17 19:52:00,52.0,37.0,-100.00,WSW,238,10.0,14.0,57,0.00,,,0.00,23.000000,,2013-03-18 02:52:00,
2013-03-17 20:02:00,52.0,37.0,-100.00,WSW,238,10.0,14.0,57,0.00,,,0.00,23.000000,,2013-03-18 03:02:00,
2013-03-17 20:11:00,52.0,37.0,-100.00,WSW,238,10.0,14.0,57,0.00,,,0.00,23.000000,,2013-03-18 03:11:00,
2013-03-17 20:22:00,52.0,37.0,-100.00,WSW,238,10.0,14.0,57,0.00,,,0.00,23.000000,,2013-03-18 03:22:00,
2013-03-17 20:53:00,52.0,32.0,-100.00,WSW,248,10.0,14.0,46,0.00,,,0.00,0.000000,,2013-03-18 03:53:00,
2013-03-17 21:02:00,52.0,32.0,-100.00,WSW,248,10.0,14.0,46,0.00,,,0.00,0.000000,,2013-03-18 04:02:00,
2013-03-17 21:52:00,52.0,31.0,-100.00,WSW,253,8.0,11.0,45,0.00,,,0.00,0.000000,,2013-03-18 04:52:00,
2013-03-17 22:52:00,54.0,30.0,-100.00,West,273,8.0,12.0,40,0.00,,,0.00,0.000000,,2013-03-18 05:52:00,
2013-03-17 23:52:00,54.0,29.0,-100.00,NW,306,6.0,9.0,38,0.00,,,0.00,0.000000,,2013-03-18 06:52:00,